West Glacier, Montana
Current Conditions -  °F | °C
As of 9:55 AM on Tuesday 27 Jan 2015 (Local Time) from KGPI Reporting Station
Clear Clear  
Wind Chill: 23°   Ceiling: Unl
Heat Index: 23°   Visibility: 10mi
Dew Point: 21°   Wind: 0mph
Humidity: 92%   Direction: NA
Pressure: 29.99"   Gusts: NA
Location:  48.5°N, 113.98°W
Report Text: KGPI 271655Z 00000KT 10SM CLR M05/M06 A2999 RMK AO2 SLP193 T10501061
Loading
Personal Weather Stations






























Interactive Weather Map New forecast layout! Learn more

10-Day Weather Forecast

Advertisements
Track Severe Weather on mobile